McKean County Weather on FaceBook
Current Metar reports for airports in our Region

Nearby METAR Reports

Metar reports(Meteorological Terminal Aviation Routine) are mainly used by pilots for information on what is happening at their destination during their pre-flight weather briefings and by meteorologists to assist in short term forecasts. A raw Metar is one of the most universal ways to communicate weather information in the world and are usually transmitted by airports, but some come from permanent sanctioned weather observatories.

Listed below are Metars from airports within 100 miles of our station here in Smethport Pa. The first one of course is the Bradford Regional Airport, then the Olean NY airport and so on. Each airport has it's own table to display it's data and at the bottom of the table is 'Raw' Metar for each airport. Most pilots and weather forecasters can look at the raw data and tell you what is up, but we use a script that handles all of the details for us.

KBFD - Bradford, Pennsylvania, USA
Distance from station: NW 7mi, 11km
Updated: Mon, 27-Jun-2022 1:53am EDT
Overcast
Overcast
 Wind from W
Wind: W 9 mph , 15 km/h
Temperature: 72°F , 22°C
Dew Point: 66°F , 19°C
Humidity: 83%
Barometer: 29.99 inHg , 1015.6 hPa
Clouds: Overcast
Visibility: 7 miles , 11 km
Cloud details: Overcast 600 ft
2022/06/27 05:53 KBFD 270553Z AUTO 26008KT 7SM OVC006 22/19 A2999 RMK AO2 CIG 003V011 SLP134 60069 T02170189 10228 20217 58003
KOLE - Olean, New York, USA
Distance from station: NNE 37mi, 59km
Updated: Mon, 27-Jun-2022 1:35am EDT
Overcast
Overcast
 Wind from WSW
Wind: WSW 5 mph , 7 km/h
Temperature: 66°F , 19°C
Dew Point: 66°F , 19°C
Humidity: 100%
Barometer: 29.97 inHg , 1014.9 hPa
Clouds: Overcast
Visibility: 7 miles , 11 km
Cloud details: Overcast 400 ft
2022/06/27 05:35 KOLE 270535Z AUTO 25004KT 7SM OVC004 19/19 A2997 RMK AO2
 
KELZ - Wellsville, New York, USA
Distance from station: NE 40mi, 64km
Updated: Mon, 27-Jun-2022 1:54am EDT
Mostly Cloudy
Mostly Cloudy
 Wind from W
Wind: W 9 mph , 15 km/h
Temperature: 70°F , 21°C
Dew Point: 66°F , 19°C
Humidity: 88%
Barometer: 29.97 inHg , 1014.9 hPa
Clouds: Mostly Cloudy
Visibility: 7 miles , 11 km
Cloud details: Partly Cloudy 1000 ft
Partly Cloudy 1600 ft
Mostly Cloudy 9500 ft
2022/06/27 05:54 KELZ 270554Z AUTO 27008KT 7SM SCT010 SCT016 BKN095 21/19 A2997 RMK AO2 RAB15E24 P0000
KDUJ - Du Bois, Pennsylvania, USA
Distance from station: SSW 42mi, 68km
Updated: Mon, 27-Jun-2022 1:53am EDT
Mist, Overcast
Mist, Overcast
 Wind from WSW
Wind: WSW 10 mph , 17 km/h
Temperature: 70°F , 21°C
Dew Point: 66°F , 19°C
Humidity: 88%
Barometer: 29.99 inHg , 1015.6 hPa
Summary: Mist
Clouds: Overcast
Visibility: 3 miles , 5 km
Cloud details: Overcast 200 ft
2022/06/27 05:53 KDUJ 270553Z AUTO 24009KT 3SM BR OVC002 21/19 A2999 RMK AO2 SLP141 60025 T02060194 10256 20200 58004
 
KJHW - Jamestown, New York, USA
Distance from station: NW 46mi, 75km
Updated: Mon, 27-Jun-2022 1:50am EDT
Overcast
Overcast
 Wind from WNW
Wind: WNW 13 mph , 20 km/h
Temperature: 70°F , 21°C
Dew Point: 64°F , 18°C
Humidity: 83%
Barometer: 29.98 inHg , 1015.2 hPa
Clouds: Overcast
Visibility: 10 miles , 16 km
Cloud details: Partly Cloudy 1000 ft
Mostly Cloudy 4100 ft
Overcast 6000 ft
2022/06/27 05:50 KJHW 270550Z AUTO 29011KT 10SM SCT010 BKN041 OVC060 21/18 A2998 RMK AO2 RAE28 P0000
KFIG - Clearfield, Pennsylvania, USA
Distance from station: S 47mi, 75km
Updated: Mon, 27-Jun-2022 1:54am EDT
Overcast
Overcast
 Wind from SSW
Wind: SSW 7 mph , 11 km/h
Temperature: 68°F , 20°C
Dew Point: 66°F , 19°C
Humidity: 94%
Barometer: 29.99 inHg , 1015.6 hPa
Clouds: Overcast
Visibility: 10 miles , 16 km
Cloud details: Few Clouds 600 ft
Mostly Cloudy 1000 ft
Overcast 3800 ft
2022/06/27 05:54 KFIG 270554Z AUTO 21006KT 10SM FEW006 BKN010 OVC038 20/19 A2999 RMK AO2 RAB00E24 SLP144 P0001 60010 T02000194 10256 20200 58002
 
KDKK - Dunkirk, New York, USA
Distance from station: NW 66mi, 106km
Updated: Mon, 27-Jun-2022 1:53am EDT
Overcast
Overcast
 Wind from WSW
Wind: WSW 9 mph , 15 km/h
Temperature: 72°F , 22°C
Dew Point: 66°F , 19°C
Humidity: 83%
Barometer: 29.94 inHg , 1013.9 hPa
Clouds: Overcast
Visibility: 10 miles , 16 km
Cloud details: Overcast 4900 ft
2022/06/27 05:53 KDKK 270553Z AUTO 24008KT 10SM OVC049 22/19 A2994 RMK AO2 RAE0459 SLP133 P0000 60020 T02220189 10256 20222 53008 $
KUNV - State College, Pennsylvania, USA
Distance from station: SSE 71mi, 114km
Updated: Mon, 27-Jun-2022 1:35am EDT
Light rain, Overcast
Light rain, Overcast
 Wind from WSW
Wind: WSW 7 mph , 11 km/h
Temperature: 72°F , 22°C
Dew Point: 70°F , 21°C
Humidity: 94%
Barometer: 29.98 inHg , 1015.2 hPa
Summary: Light Rain
Clouds: Overcast
Visibility: 10 miles , 16 km
Cloud details: Partly Cloudy 3000 ft
Partly Cloudy 3900 ft
Overcast 4500 ft
2022/06/27 05:35 KUNV 270535Z AUTO 24006KT 10SM -RA SCT030 SCT039 OVC045 22/21 A2998 RMK AO2 T02200209
 
KFKL - Franklin, Pennsylvania, USA
Distance from station: WSW 72mi, 116km
Updated: Mon, 27-Jun-2022 1:24am EDT
Mostly Cloudy
Mostly Cloudy
 Wind from W
Wind: W 10 mph , 17 km/h
Temperature: 68°F , 20°C
Dew Point: 68°F , 20°C
Humidity: 100%
Barometer: 30.01 inHg , 1016.3 hPa
Clouds: Mostly Cloudy
Visibility: 7 miles , 11 km
Cloud details: Partly Cloudy 1200 ft
Mostly Cloudy 4700 ft
Mostly Cloudy 6000 ft
2022/06/27 05:24 KFKL 270524Z AUTO 28009KT 7SM SCT012 BKN047 BKN060 20/20 A3001 RMK AO2 $
KDSV - Dansville, New York, USA
Distance from station: NE 73mi, 117km
Updated: Mon, 27-Jun-2022 1:54am EDT
Overcast
Overcast
 Wind from SE
Wind: SE 3 mph , 6 km/h
Temperature: 73°F , 23°C
Dew Point: 70°F , 21°C
Humidity: 89%
Barometer: 29.90 inHg , 1012.5 hPa
Clouds: Overcast
Visibility: 10 miles , 16 km
Cloud details: Mostly Cloudy 2300 ft
Mostly Cloudy 3600 ft
Overcast 10000 ft
2022/06/27 05:54 KDSV 270554Z AUTO 14003KT 10SM BKN023 BKN036 OVC100 23/21 A2990 RMK AO2 RAE06 SLP127 P0000 60000 T02280211 10283 20228 56004
 
KIDI - Indiana/Stewart, Pennsylvania, USA
Distance from station: SSW 81mi, 130km
Updated: Mon, 27-Jun-2022 1:55am EDT
Mostly Cloudy
Mostly Cloudy
 Wind from WSW
Wind: WSW 5 mph , 7 km/h
Temperature: 70°F , 21°C
Dew Point: 70°F , 21°C
Humidity: 100%
Barometer: 30.04 inHg , 1017.3 hPa
Clouds: Mostly Cloudy
Visibility: 9 miles , 14 km
Cloud details: Few Clouds 900 ft
Partly Cloudy 4700 ft
Mostly Cloudy 6500 ft
2022/06/27 05:55 KIDI 270555Z AUTO 25004KT 9SM FEW009 SCT047 BKN065 21/21 A3004 RMK A01
KBUF - Buffalo/Cheektow, New York, USA
Distance from station: N 84mi, 136km
Updated: Mon, 27-Jun-2022 1:54am EDT
Overcast
Overcast
 Wind from W
Wind: W 10 mph , 17 km/h
Temperature: 72°F , 22°C
Dew Point: 68°F , 20°C
Humidity: 88%
Barometer: 29.90 inHg , 1012.5 hPa
Clouds: Overcast
Visibility: 7 miles , 11 km
Cloud details: Mostly Cloudy 2700 ft
Mostly Cloudy 3300 ft
Overcast 6000 ft
2022/06/27 05:54 KBUF 270554Z 27009KT 7SM BKN027 BKN033 OVC060 22/20 A2990 RMK AO2 RAB08E18 SLP119 P0000 60000 T02220200 10244 20217 53002 $
 
KGKJ - Meadville, Pennsylvania, USA
Distance from station: W 86mi, 138km
Updated: Mon, 27-Jun-2022 1:53am EDT
Partly Cloudy
Partly Cloudy
 Wind from W
Wind: W 7 mph , 11 km/h
Temperature: 66°F , 19°C
Dew Point: 59°F , 15°C
Humidity: 78%
Barometer: 30.01 inHg , 1016.3 hPa
Clouds: Partly Cloudy
Visibility: 10 miles , 16 km
Cloud details: Partly Cloudy 5500 ft
2022/06/27 05:53 KGKJ 270553Z AUTO 28006KT 10SM SCT055 19/15 A3001 RMK AO2 SLP153 T01890150 10222 20189 53010
KERI - Erie, Pennsylvania, USA
Distance from station: WNW 87mi, 140km
Updated: Mon, 27-Jun-2022 1:51am EDT
Mostly Cloudy
Mostly Cloudy
 Wind from W
Wind: W 6 mph , 9 km/h
Temperature: 72°F , 22°C
Dew Point: 61°F , 16°C
Humidity: 69%
Barometer: 29.98 inHg , 1015.2 hPa
Clouds: Mostly Cloudy
Visibility: 10 miles , 16 km
Cloud details: Mostly Cloudy 6000 ft
2022/06/27 05:51 KERI 270551Z AUTO 26005KT 10SM BKN060 22/16 A2998 RMK AO2 SLP148 60001 T02170156 10267 20217 53016
 
KELM - Elmira, New York, USA
Distance from station: ENE 90mi, 145km
Updated: Mon, 27-Jun-2022 1:53am EDT
Light rain, Overcast
Light rain, Overcast
 Wind from calm
Wind: Calm
Temperature: 72°F , 22°C
Dew Point: 70°F , 21°C
Humidity: 94%
Barometer: 29.90 inHg , 1012.5 hPa
Summary: Light Rain
Clouds: Overcast
Visibility: 7 miles , 11 km
Cloud details: Few Clouds 1700 ft
Mostly Cloudy 5000 ft
Overcast 9000 ft
2022/06/27 05:53 KELM 270553Z AUTO 00000KT 7SM -RA FEW017 BKN050 OVC090 22/21 A2990 RMK AO2 SLP115 P0002 60003 T02170211 10244 20217 57011
KIPT - Williamsport, Pennsylvania, USA
Distance from station: ESE 91mi, 146km
Updated: Mon, 27-Jun-2022 1:54am EDT
Mostly Cloudy
Mostly Cloudy
 Wind from ESE
Wind: ESE 5 mph , 7 km/h
Temperature: 73°F , 23°C
Dew Point: 70°F , 21°C
Humidity: 89%
Barometer: 29.92 inHg , 1013.2 hPa
Clouds: Mostly Cloudy
Visibility: 10 miles , 16 km
Cloud details: Partly Cloudy 1500 ft
Mostly Cloudy 2300 ft
Mostly Cloudy 2900 ft
2022/06/27 05:54 KIPT 270554Z AUTO 11004KT 10SM SCT015 BKN023 BKN029 23/21 A2992 RMK AO2 SLP125 60011 T02280206 10239 20222 58012
 
KBTP - Butler Co., Pennsylvania, USA
Distance from station: SW 98mi, 157km
Updated: Mon, 27-Jun-2022 1:48am EDT
Light rain, Overcast
Light rain, Overcast
 Wind from WSW
Wind: WSW 9 mph , 15 km/h
Temperature: 70°F , 21°C
Dew Point: 70°F , 21°C
Humidity: 100%
Barometer: 30.02 inHg , 1016.6 hPa
Summary: Light Rain
Clouds: Overcast
Visibility: 8 miles , 13 km
Cloud details: Partly Cloudy 1200 ft
Mostly Cloudy 2600 ft
Overcast 4200 ft
2022/06/27 05:48 KBTP 270548Z AUTO 25008KT 8SM -RA SCT012 BKN026 OVC042 21/21 A3002 RMK AO2 RAB13 TSNO PNO $
KAOO - Altoona, Pennsylvania, USA
Distance from station: S 99mi, 159km
Updated: Mon, 27-Jun-2022 1:53am EDT
Light rain, Mist, Mostly cloudy
Light rain, Mist, Mostly cloudy
 Wind from WSW
Wind: WSW 7 mph , 11 km/h
Temperature: 72°F , 22°C
Dew Point: 68°F , 20°C
Humidity: 88%
Barometer: 30.00 inHg , 1015.9 hPa
Summary: Light rain, Mist
Clouds: Mostly Cloudy
Visibility: 6 miles , 10 km
Cloud details: Few Clouds 10000 ft
Mostly Cloudy 12000 ft
2022/06/27 05:53 KAOO 270553Z AUTO 24006KT 6SM -RA BR FEW100 BKN120 22/20 A3000 RMK AO2 RAB29 SLP148 P0001 60001 T02220200 10256 20222 58001
 
KPIT - Pittsburg, Pennsylvania, USA
Distance from station: SSW 126mi, 203km
Updated: Mon, 27-Jun-2022 1:51am EDT
Light rain, Overcast
Light rain, Overcast
 Wind from NW
Wind: NW 15 mph , 24 km/h
Temperature: 70°F , 21°C
Dew Point: 66°F , 19°C
Humidity: 88%
Barometer: 30.00 inHg , 1015.9 hPa
Summary: Light Rain
Clouds: Overcast
Visibility: 9 miles , 14 km
Cloud details: Partly Cloudy 700 ft
Mostly Cloudy 2500 ft
Overcast 5000 ft
2022/06/27 05:51 KPIT 270551Z 32013KT 9SM -RA SCT007 BKN025 OVC050 21/19 A3000 RMK AO2 RAB0459 TSB06E37 SLP158 P0018 60018 T02060194 10256 20206 51003 $
KCLE - Cleveland, Ohio, USA
Distance from station: WSW 160mi, 258km
Updated: Mon, 27-Jun-2022 1:51am EDT
Partly Cloudy
Partly Cloudy
 Wind from WNW
Wind: WNW 12 mph , 19 km/h
Temperature: 70°F , 21°C
Dew Point: 54°F , 12°C
Humidity: 57%
Barometer: 30.03 inHg , 1016.9 hPa
Clouds: Partly Cloudy
Visibility: 10 miles , 16 km
Cloud details: Partly Cloudy 25000 ft
2022/06/27 05:51 KCLE 270551Z 30010KT 10SM SCT250 21/12 A3003 RMK AO2 SLP177 T02110117 10256 20211 51013 $